Time;durP1;ratioP1;P1;durP2;ratioP2;P2;SDS_P1;SDS_P2;PMS_P1;PMS_P2;Temp;Humidity;BMP_temperature;BMP_pressure;BME280_temperature;BME280_humidity;BME280_pressure;Samples;Min_cycle;Max_cycle;Signal;HPM_P1;HPM_P2
2022/05/03 00:01:34;;;;;;;4.20;3.83;;;;;;;10.84;79.56;94848.91;5039097;28;20328;-72
2022/05/03 00:04:08;;;;;;;4.60;3.85;;;;;;;10.61;80.27;94842.16;5037047;28;20276;-73
2022/05/03 00:06:46;;;;;;;3.20;3.00;;;;;;;10.56;80.38;94837.22;5040406;28;21384;-74
2022/05/03 00:09:22;;;;;;;4.22;3.85;;;;;;;10.59;82.50;94849.00;5038647;28;20781;-74
2022/05/03 00:11:56;;;;;;;5.07;4.60;;;;;;;10.41;81.59;94834.41;5039498;28;20232;-71
2022/05/03 00:14:31;;;;;;;4.97;3.53;;;;;;;10.56;82.42;94844.84;5037629;28;20201;-72
2022/05/03 00:16:59;;;;;;;3.88;3.03;;;;;;;10.55;81.36;94838.13;5040118;28;20203;-74
2022/05/03 00:19:28;;;;;;;3.42;3.22;;;;;;;10.65;81.19;94832.66;5036024;28;20390;-71
2022/05/03 00:21:56;;;;;;;4.50;4.15;;;;;;;10.63;81.63;94848.00;5038108;28;20226;-74
2022/05/03 00:24:23;;;;;;;3.60;3.30;;;;;;;10.35;83.67;94844.81;5037116;28;20271;-74
2022/05/03 00:26:50;;;;;;;4.63;3.83;;;;;;;10.26;84.35;94837.50;5036686;28;20226;-74
2022/05/03 00:29:18;;;;;;;3.78;3.47;;;;;;;10.38;81.58;94845.53;5039208;28;20288;-73
2022/05/03 00:31:46;;;;;;;3.90;3.55;;;;;;;10.49;81.74;94837.50;5038637;28;20661;-72
2022/05/03 00:34:13;;;;;;;3.47;3.25;;;;;;;10.44;82.49;94839.38;5036773;28;20202;-75
2022/05/03 00:36:41;;;;;;;4.03;3.63;;;;;;;10.26;83.33;94845.13;5035855;28;20218;-72
2022/05/03 00:39:08;;;;;;;3.72;3.53;;;;;;;10.31;84.15;94839.00;5037329;28;21236;-74
2022/05/03 00:41:41;;;;;;;4.43;3.78;;;;;;;10.38;83.02;94839.63;5038874;28;20265;-75
2022/05/03 00:47:10;;;;;;;3.78;3.58;;;;;;;10.36;82.66;94841.38;5041006;28;20225;-72
2022/05/03 00:49:45;;;;;;;3.83;3.53;;;;;;;10.33;83.71;94838.94;5039393;28;20195;-73
2022/05/03 00:52:23;;;;;;;3.50;3.30;;;;;;;10.22;83.17;94850.31;5039047;28;20209;-73
2022/05/03 00:55:04;;;;;;;4.55;4.15;;;;;;;10.32;83.33;94834.75;5038037;28;20206;-72
2022/05/03 00:57:42;;;;;;;4.93;3.97;;;;;;;10.43;83.21;94840.25;5038503;28;20233;-73
2022/05/03 01:00:10;;;;;;;3.53;3.30;;;;;;;10.29;82.46;94834.88;5037461;28;20206;-74
2022/05/03 01:03:07;;;;;;;3.38;3.17;;;;;;;10.17;83.14;94842.00;5039387;28;20522;-74
2022/05/03 01:05:43;;;;;;;4.43;4.10;;;;;;;10.28;85.05;94840.81;5038145;28;20210;-73
2022/05/03 01:08:16;;;;;;;4.45;4.00;;;;;;;10.26;85.06;94830.72;5038708;28;20252;-74
2022/05/03 01:10:58;;;;;;;3.50;3.30;;;;;;;10.32;83.59;94829.69;5038483;28;20807;-72
2022/05/03 01:13:30;;;;;;;4.35;3.65;;;;;;;10.18;85.79;94828.41;5039296;28;20299;-74
2022/05/03 01:16:02;;;;;;;4.15;3.70;;;;;;;10.12;84.55;94805.81;5037561;28;20280;-73
2022/05/03 01:18:35;;;;;;;3.55;3.35;;;;;;;10.39;83.73;94826.03;5039317;28;20299;-74
2022/05/03 01:21:11;;;;;;;4.70;4.30;;;;;;;10.08;85.23;94832.19;5037498;28;20199;-76
2022/05/03 01:24:13;;;;;;;3.65;3.35;;;;;;;10.11;84.74;94831.25;5039692;28;20230;-73
2022/05/03 01:27:12;;;;;;;3.67;3.38;;;;;;;10.10;83.66;94825.34;5040230;28;20207;-75
2022/05/03 01:29:45;;;;;;;4.00;3.70;;;;;;;10.10;84.45;94827.88;5041098;28;20284;-73
2022/05/03 01:32:13;;;;;;;3.92;3.63;;;;;;;9.99;82.91;94819.78;5041311;28;20234;-72
2022/05/03 01:34:45;;;;;;;5.43;5.00;;;;;;;10.06;84.93;94817.88;5041264;28;20675;-74
2022/05/03 01:37:35;;;;;;;3.92;3.60;;;;;;;10.01;84.56;94812.97;5041330;28;20207;-74
2022/05/03 01:40:07;;;;;;;4.97;3.72;;;;;;;10.17;82.64;94813.22;5041105;28;20630;-72
2022/05/03 01:43:07;;;;;;;5.43;3.80;;;;;;;10.26;82.19;94804.50;5040858;28;20634;-72
2022/05/03 01:45:42;;;;;;;3.67;3.33;;;;;;;10.20;84.29;94803.81;5041158;28;20229;-74
2022/05/03 01:48:24;;;;;;;4.18;3.88;;;;;;;10.26;84.10;94804.50;5042185;28;20746;-74
2022/05/03 01:50:58;;;;;;;4.70;3.63;;;;;;;10.30;82.83;94798.44;5041551;28;20198;-74
2022/05/03 01:53:34;;;;;;;5.20;3.53;;;;;;;10.40;82.45;94799.72;5040910;28;20203;-74
2022/05/03 01:56:23;;;;;;;3.20;2.90;;;;;;;10.05;83.65;94798.44;5039637;28;20202;-75
2022/05/03 01:59:05;;;;;;;4.13;3.13;;;;;;;10.29;82.34;94795.06;5041123;28;20198;-72
2022/05/03 02:01:48;;;;;;;3.45;3.25;;;;;;;10.07;84.09;94797.50;5041519;28;21117;-74
2022/05/03 02:04:39;;;;;;;3.58;3.38;;;;;;;10.06;83.85;94798.41;5040975;28;20569;-73
2022/05/03 02:07:07;;;;;;;5.32;3.80;;;;;;;10.09;83.78;94802.53;5040368;28;20211;-73
2022/05/03 02:10:01;;;;;;;4.00;3.53;;;;;;;10.37;83.18;94802.41;5040336;28;20209;-73
2022/05/03 02:12:29;;;;;;;3.70;3.40;;;;;;;10.04;82.45;94799.34;5042049;28;20199;-74
2022/05/03 02:15:00;;;;;;;4.18;3.75;;;;;;;9.95;81.13;94800.47;5039782;28;20252;-73
2022/05/03 02:17:54;;;;;;;4.13;3.72;;;;;;;9.91;83.15;94804.00;5040566;28;20198;-73
2022/05/03 02:20:47;;;;;;;4.03;3.75;;;;;;;10.08;83.14;94799.19;5032554;28;20252;-74
2022/05/03 02:23:19;;;;;;;3.88;3.55;;;;;;;10.09;82.20;94798.28;5040316;28;22452;-72
2022/05/03 02:26:15;;;;;;;4.10;3.75;;;;;;;10.06;82.02;94798.41;5041189;28;20196;-74
2022/05/03 02:28:45;;;;;;;4.38;4.07;;;;;;;9.97;81.73;94788.56;5028523;28;20202;-73
2022/05/03 02:31:15;;;;;;;3.38;3.17;;;;;;;10.04;82.77;94794.25;5040862;28;20315;-75
2022/05/03 02:33:50;;;;;;;4.28;4.07;;;;;;;10.00;83.38;94797.78;5039914;28;20217;-74
2022/05/03 02:36:23;;;;;;;4.38;4.18;;;;;;;10.20;82.22;94795.38;5039934;28;20229;-73
2022/05/03 02:38:59;;;;;;;4.43;4.03;;;;;;;9.83;83.12;94796.66;5041161;28;20664;-75
2022/05/03 02:41:28;;;;;;;4.95;4.55;;;;;;;9.95;84.00;94795.41;5040300;28;20225;-74
2022/05/03 02:43:57;;;;;;;4.68;4.38;;;;;;;9.97;84.17;94793.63;5039481;28;21041;-73
2022/05/03 02:46:49;;;;;;;4.25;4.05;;;;;;;9.81;84.22;94788.28;5040272;28;20208;-73
2022/05/03 02:49:20;;;;;;;4.60;4.30;;;;;;;9.77;85.08;94789.25;5032971;28;20757;-72
2022/05/03 02:51:53;;;;;;;4.30;4.00;;;;;;;9.98;83.74;94790.22;5040187;28;20308;-73
2022/05/03 02:54:32;;;;;;;5.25;4.78;;;;;;;9.82;84.59;94789.13;5039662;28;20222;-77
2022/05/03 02:57:08;;;;;;;5.25;4.85;;;;;;;9.76;85.27;94790.16;5040219;28;20206;-73
2022/05/03 03:02:35;;;;;;;5.15;4.70;;;;;;;9.87;85.49;94789.78;5038829;28;20541;-76
2022/05/03 03:05:07;;;;;;;4.35;4.15;;;;;;;9.85;85.43;94786.47;5038475;28;20275;-74
2022/05/03 03:07:45;;;;;;;5.53;5.10;;;;;;;9.69;87.19;94791.22;5039774;28;20241;-74
2022/05/03 03:10:20;;;;;;;5.50;4.97;;;;;;;9.92;84.72;94782.81;5038839;28;20198;-73
2022/05/03 03:12:54;;;;;;;5.47;5.07;;;;;;;9.95;85.10;94792.84;5038775;28;20204;-73
2022/05/03 03:15:28;;;;;;;5.70;5.30;;;;;;;9.95;85.39;94795.41;5037806;28;20198;-73
2022/05/03 03:17:56;;;;;;;5.18;4.78;;;;;;;10.12;83.55;94785.50;5036849;28;20337;-76
2022/05/03 03:20:26;;;;;;;5.03;4.65;;;;;;;10.08;83.64;94786.47;5037811;28;20206;-73
2022/05/03 03:22:54;;;;;;;4.60;4.30;;;;;;;10.13;83.52;94788.84;5037629;28;21233;-74
2022/05/03 03:25:22;;;;;;;5.05;4.75;;;;;;;10.03;83.77;94777.38;5036219;28;20354;-72
2022/05/03 03:27:51;;;;;;;4.75;4.45;;;;;;;10.02;84.00;94791.78;5036518;28;20194;-74
2022/05/03 03:30:18;;;;;;;5.28;4.97;;;;;;;9.88;85.88;94786.38;5037627;28;20198;-76
2022/05/03 03:32:48;;;;;;;5.22;4.93;;;;;;;9.86;83.85;94796.56;5036950;28;20794;-74
2022/05/03 03:35:16;;;;;;;5.18;4.85;;;;;;;9.96;84.56;94794.53;5037833;28;20257;-74
2022/05/03 03:37:46;;;;;;;5.15;4.85;;;;;;;9.96;84.39;94791.97;5039819;28;20206;-74
2022/05/03 03:40:14;;;;;;;4.68;4.38;;;;;;;9.73;83.83;94786.88;5040178;28;20234;-74
2022/05/03 03:42:43;;;;;;;5.60;5.20;;;;;;;9.90;83.68;94787.13;5040292;28;20265;-76
2022/05/03 03:45:12;;;;;;;4.93;4.63;;;;;;;9.92;83.52;94787.06;5039252;28;20202;-75
2022/05/03 03:47:40;;;;;;;6.90;5.05;;;;;;;9.79;84.76;94790.03;5041709;28;20284;-73
2022/05/03 03:50:09;;;;;;;5.57;5.18;;;;;;;10.06;84.44;94798.41;5046237;28;20665;-76
2022/05/03 03:52:38;;;;;;;5.50;5.15;;;;;;;9.82;84.52;94800.09;5042607;28;20569;-73
2022/05/03 03:55:09;;;;;;;7.35;6.07;;;;;;;9.75;85.56;94802.88;5042463;28;20643;-74
2022/05/03 03:57:36;;;;;;;5.40;5.05;;;;;;;9.77;86.03;94812.09;5040057;28;20279;-73
2022/05/03 04:00:05;;;;;;;5.78;5.38;;;;;;;10.04;84.90;94796.78;5039472;28;20600;-75
2022/05/03 04:02:33;;;;;;;5.88;5.38;;;;;;;10.06;84.70;94811.09;5039550;28;20234;-73
2022/05/03 04:05:02;;;;;;;5.40;5.00;;;;;;;10.20;83.86;94803.81;5040523;28;20703;-74
2022/05/03 04:07:29;;;;;;;5.60;5.28;;;;;;;10.12;84.42;94802.44;5039235;28;20214;-72
2022/05/03 04:09:56;;;;;;;5.38;5.00;;;;;;;10.28;83.26;94808.63;5039917;28;20213;-74
2022/05/03 04:12:25;;;;;;;6.30;5.85;;;;;;;10.21;83.88;94802.13;5040354;28;20199;-74
2022/05/03 04:14:52;;;;;;;5.40;5.00;;;;;;;10.26;84.41;94809.56;5039489;28;20234;-76
2022/05/03 04:17:19;;;;;;;5.72;5.28;;;;;;;10.05;84.08;94811.97;5038485;28;20205;-73
2022/05/03 04:19:46;;;;;;;5.82;5.35;;;;;;;10.15;83.38;94798.03;5039210;28;20198;-74
2022/05/03 04:22:26;;;;;;;6.20;5.72;;;;;;;10.28;83.60;94812.88;5038521;28;20191;-73
2022/05/03 04:24:53;;;;;;;5.40;4.97;;;;;;;10.15;83.88;94818.34;5039318;28;20299;-76
2022/05/03 04:27:20;;;;;;;5.85;5.35;;;;;;;10.28;83.29;94815.44;5039173;28;20281;-74
2022/05/03 04:29:49;;;;;;;6.00;5.25;;;;;;;10.29;82.84;94819.63;5040277;28;20213;-75
2022/05/03 04:32:16;;;;;;;5.07;4.68;;;;;;;10.19;82.84;94825.03;5039036;28;20259;-73
2022/05/03 04:34:42;;;;;;;5.60;5.20;;;;;;;10.51;81.11;94815.41;5040174;28;20283;-74
2022/05/03 04:37:09;;;;;;;4.55;4.22;;;;;;;10.49;80.48;94822.25;5040267;28;20209;-74
2022/05/03 04:39:36;;;;;;;4.57;4.25;;;;;;;10.39;80.38;94820.97;5040194;28;20693;-72
2022/05/03 04:42:03;;;;;;;4.60;4.20;;;;;;;10.27;80.45;94817.13;5040448;28;20198;-72
2022/05/03 04:44:30;;;;;;;4.53;4.22;;;;;;;10.13;81.11;94826.94;5039453;28;20238;-74
2022/05/03 04:46:58;;;;;;;4.43;4.13;;;;;;;10.16;82.29;94822.56;5038813;28;20217;-73
2022/05/03 04:49:24;;;;;;;4.93;4.45;;;;;;;10.38;81.27;94821.84;5040799;28;20971;-72
2022/05/03 04:51:51;;;;;;;4.90;4.53;;;;;;;10.45;79.99;94815.63;5038347;28;20648;-73
2022/05/03 04:54:18;;;;;;;4.78;4.47;;;;;;;10.49;79.53;94824.81;5039873;28;20203;-73
2022/05/03 04:56:48;;;;;;;6.43;3.88;;;;;;;10.54;79.13;94821.22;5039187;28;20264;-71
2022/05/03 04:59:15;;;;;;;6.57;4.30;;;;;;;10.56;79.64;94823.69;5040464;28;20229;-74
2022/05/03 05:01:42;;;;;;;4.55;4.25;;;;;;;10.66;78.74;94824.16;5041837;28;20194;-73
2022/05/03 05:04:10;;;;;;;4.57;4.18;;;;;;;10.52;77.55;94824.69;5043802;28;20321;-72
2022/05/03 05:06:37;;;;;;;5.63;3.75;;;;;;;10.42;77.84;94826.72;5043739;28;20781;-72
2022/05/03 05:09:03;;;;;;;3.85;3.53;;;;;;;10.44;77.66;94824.13;5043907;28;20210;-73
2022/05/03 05:11:30;;;;;;;3.22;3.03;;;;;;;10.52;76.77;94822.16;5043015;28;20234;-74
2022/05/03 05:13:57;;;;;;;3.50;3.30;;;;;;;10.12;77.64;94808.34;5043349;28;20666;-76
2022/05/03 05:16:24;;;;;;;3.75;3.45;;;;;;;-142.91;100.00;56616.03;5042796;28;20566;-75
2022/05/03 05:18:50;;;;;;;3.17;2.97;;;;;;;-142.91;100.00;56616.03;5042936;28;20279;-75
2022/05/03 05:21:19;;;;;;;2.88;2.67;;;;;;;-142.91;100.00;56616.03;5045177;28;20202;-73
2022/05/03 05:23:45;;;;;;;2.95;2.75;;;;;;;-142.91;100.00;56616.03;5042698;28;20781;-73
2022/05/03 05:26:13;;;;;;;3.28;2.80;;;;;;;9.93;nan;94829.31;5043414;28;20257;-72
2022/05/03 05:28:39;;;;;;;3.47;3.25;;;;;;;9.97;nan;94831.72;5042279;28;20712;-72
2022/05/03 05:31:07;;;;;;;5.30;2.40;;;;;;;9.87;nan;94833.75;5044702;28;20202;-74
2022/05/03 05:33:34;;;;;;;3.72;2.85;;;;;;;10.15;nan;94831.06;5043714;28;20210;-72
2022/05/03 05:36:00;;;;;;;3.72;3.25;;;;;;;10.71;nan;94832.44;5043721;28;20226;-75
2022/05/03 05:38:28;;;;;;;3.03;2.72;;;;;;;11.55;nan;94825.72;5043825;28;20206;-73
2022/05/03 05:40:55;;;;;;;3.35;2.20;;;;;;;11.82;nan;94820.41;5043840;28;22203;-75
2022/05/03 05:43:22;;;;;;;3.30;2.80;;;;;;;11.93;nan;94834.31;5042390;28;20567;-74
2022/05/03 05:45:49;;;;;;;3.05;2.30;;;;;;;11.57;nan;94846.00;5044465;28;20234;-74
2022/05/03 05:48:20;;;;;;;3.13;2.80;;;;;;;11.17;nan;94832.31;5043599;28;20653;-73
2022/05/03 05:50:46;;;;;;;2.88;2.67;;;;;;;10.75;nan;94847.53;5043637;28;20575;-74
2022/05/03 05:55:59;;;;;;;2.80;2.60;;;;;;;11.24;nan;94843.91;5042613;28;20649;-74
2022/05/03 05:58:25;;;;;;;2.65;2.42;;;;;;;11.71;nan;94850.50;5042417;28;20333;-73
2022/05/03 06:00:52;;;;;;;5.32;2.83;;;;;;;12.79;nan;94866.25;5042908;28;20248;-76
2022/05/03 06:03:20;;;;;;;2.70;2.45;;;;;;;14.72;nan;94856.75;5043486;28;20234;-75
2022/05/03 06:05:48;;;;;;;2.38;2.20;;;;;;;15.86;nan;94849.59;5043436;28;20256;-76
2022/05/03 06:08:15;;;;;;;2.63;2.40;;;;;;;14.38;nan;94854.25;5042254;28;20279;-75
2022/05/03 06:10:42;;;;;;;3.75;2.65;;;;;;;13.17;nan;94850.00;5042640;28;20195;-74
2022/05/03 06:13:10;;;;;;;2.72;2.38;;;;;;;12.50;nan;94852.25;5042574;28;20298;-76
2022/05/03 06:15:37;;;;;;;2.33;2.10;;;;;;;12.09;nan;94867.63;5042399;28;20206;-74
2022/05/03 06:18:06;;;;;;;3.63;2.60;;;;;;;11.61;nan;94859.44;5041784;28;20631;-73
2022/05/03 06:20:33;;;;;;;4.00;3.50;;;;;;;11.31;nan;94864.88;5041895;28;20293;-73
2022/05/03 06:23:00;;;;;;;2.72;2.53;;;;;;;11.17;nan;94872.19;5043604;28;20279;-75
2022/05/03 06:25:26;;;;;;;2.83;2.63;;;;;;;11.16;nan;94870.53;5042685;28;20218;-72
2022/05/03 06:27:53;;;;;;;2.60;2.40;;;;;;;11.36;nan;94873.16;5041878;28;20226;-74
2022/05/03 06:30:22;;;;;;;2.70;2.50;;;;;;;11.43;nan;94874.53;5041800;28;20191;-72
2022/05/03 06:32:48;;;;;;;4.70;3.33;;;;;;;12.37;nan;94868.97;5042478;28;20619;-73
2022/05/03 06:35:15;;;;;;;3.25;2.97;;;;;;;12.22;nan;94868.72;5042016;28;20199;-74
2022/05/03 06:37:43;;;;;;;3.83;2.63;;;;;;;11.94;nan;94868.25;5042864;28;20206;-74
2022/05/03 06:40:11;;;;;;;5.07;4.10;;;;;;;11.68;nan;94868.47;5041983;28;20248;-74
2022/05/03 06:42:39;;;;;;;5.03;2.85;;;;;;;11.63;nan;94881.38;5042027;28;20194;-74
2022/05/03 06:45:08;;;;;;;3.22;2.85;;;;;;;11.72;nan;94877.63;5040385;28;20248;-75
2022/05/03 06:47:36;;;;;;;4.38;2.80;;;;;;;11.79;nan;94877.34;5041563;28;20210;-74
2022/05/03 06:50:03;;;;;;;3.78;3.47;;;;;;;11.65;nan;94896.56;5041354;28;20210;-75
2022/05/03 06:55:24;;;;;;;3.28;2.97;;;;;;;11.55;nan;94893.59;5043078;28;20288;-76
2022/05/03 06:57:50;;;;;;;2.45;2.35;;;;;;;11.50;nan;94893.78;5042066;28;20203;-73
2022/05/03 07:00:18;;;;;;;4.93;2.13;;;;;;;11.99;nan;94899.44;5042320;28;20791;-74
2022/05/03 07:02:46;;;;;;;3.75;2.40;;;;;;;12.06;nan;94892.38;5042413;28;20206;-75
2022/05/03 07:05:13;;;;;;;3.22;2.35;;;;;;;11.89;nan;94887.97;5041504;28;21331;-74
2022/05/03 07:07:39;;;;;;;2.85;2.65;;;;;;;12.01;nan;94887.47;5042255;28;20234;-75
2022/05/03 07:10:07;;;;;;;4.18;2.65;;;;;;;11.68;nan;94896.47;5040126;28;20292;-73
2022/05/03 07:12:34;;;;;;;2.50;2.40;;;;;;;11.78;nan;94890.97;5041267;28;20199;-75
2022/05/03 07:15:01;;;;;;;8.48;2.97;;;;;;;11.93;nan;94884.41;5041865;28;20203;-74
2022/05/03 07:22:59;;;;;;;2.92;2.60;;;;;;;12.66;nan;94886.34;5040744;28;20213;-73
2022/05/03 07:25:26;;;;;;;3.17;2.88;;;;;;;12.47;nan;94883.78;5040452;28;20234;-72
2022/05/03 07:27:53;;;;;;;2.80;2.60;;;;;;;12.35;nan;94886.06;5042329;28;21392;-76
2022/05/03 07:30:20;;;;;;;4.18;2.90;;;;;;;12.36;nan;94887.72;5039889;28;20236;-73
2022/05/03 07:32:47;;;;;;;3.10;2.90;;;;;;;12.43;nan;94887.34;5041547;28;20251;-73
2022/05/03 07:35:16;;;;;;;4.93;3.20;;;;;;;12.13;nan;94901.41;5040826;28;20202;-74
2022/05/03 07:37:43;;;;;;;5.25;3.22;;;;;;;12.30;nan;94893.06;5041242;28;20239;-74
2022/05/03 07:40:11;;;;;;;9.95;2.60;;;;;;;12.42;nan;94893.34;5040019;28;20321;-74
2022/05/03 07:42:38;;;;;;;3.45;3.15;;;;;;;12.35;nan;94888.59;5041054;28;20236;-74
2022/05/03 07:45:06;;;;;;;3.45;3.15;;;;;;;11.86;nan;94900.84;5038194;28;20238;-75
2022/05/03 07:47:33;;;;;;;3.85;2.97;;;;;;;11.68;nan;94899.00;5041825;28;20202;-73
2022/05/03 07:49:59;;;;;;;3.42;3.22;;;;;;;11.76;nan;94899.53;5039595;28;20216;-73
2022/05/03 07:52:28;;;;;;;4.50;3.17;;;;;;;11.73;nan;94902.19;5041996;28;20203;-74
2022/05/03 07:54:55;;;;;;;3.08;2.72;;;;;;;11.39;nan;94910.34;5039224;28;20222;-74
2022/05/03 07:57:22;;;;;;;4.40;3.20;;;;;;;11.65;nan;94904.22;5040997;28;20205;-73
2022/05/03 07:59:49;;;;;;;2.90;2.70;;;;;;;11.87;nan;94900.78;5040615;28;20583;-72
2022/05/03 08:02:16;;;;;;;3.00;2.80;;;;;;;11.79;nan;94907.09;5045929;28;20198;-71
2022/05/03 08:04:43;;;;;;;3.60;3.28;;;;;;;11.60;nan;94906.97;5049037;28;20229;-73
2022/05/03 08:07:09;;;;;;;4.32;3.50;;;;;;;11.83;nan;94911.16;5050183;28;20291;-73
2022/05/03 08:09:37;;;;;;;10.88;3.17;;;;;;;11.85;nan;94901.75;5049965;28;20291;-73
2022/05/03 08:12:05;;;;;;;4.22;2.95;;;;;;;11.84;nan;94915.38;5051090;28;20260;-73
2022/05/03 08:14:32;;;;;;;4.50;3.80;;;;;;;11.73;nan;94920.84;5052424;28;20206;-73
2022/05/03 08:17:00;;;;;;;4.75;3.22;;;;;;;11.32;nan;94927.56;5050872;28;20210;-73
2022/05/03 08:19:27;;;;;;;3.42;3.13;;;;;;;11.28;nan;94926.03;5051139;28;20288;-76
2022/05/03 08:21:56;;;;;;;2.90;2.70;;;;;;;11.26;nan;94922.72;5051435;28;20343;-75
2022/05/03 08:24:23;;;;;;;3.80;3.50;;;;;;;11.00;nan;94936.41;5052306;28;20260;-72
2022/05/03 08:26:52;;;;;;;2.65;2.45;;;;;;;10.85;nan;94942.91;5051265;28;20226;-72
2022/05/03 08:29:18;;;;;;;3.25;2.35;;;;;;;10.95;nan;94938.28;5051328;28;20213;-72
2022/05/03 08:31:45;;;;;;;3.08;2.75;;;;;;;11.00;nan;94949.13;5050720;28;20206;-74
2022/05/03 08:34:13;;;;;;;5.68;2.92;;;;;;;10.94;nan;94951.06;5051954;28;20260;-73
2022/05/03 08:36:40;;;;;;;8.07;2.55;;;;;;;10.90;nan;94942.72;5054710;28;20596;-73
2022/05/03 08:42:06;;;;;;;2.28;2.10;;;;;;;10.78;nan;94941.47;5054299;28;20220;-74
2022/05/03 08:44:33;;;;;;;2.20;2.10;;;;;;;10.84;nan;94955.66;5055188;28;20328;-73
2022/05/03 08:47:02;;;;;;;3.03;2.33;;;;;;;11.13;nan;94954.59;5055139;28;20253;-74
2022/05/03 08:49:37;;;;;;;3.05;2.85;;;;;;;11.11;nan;94941.13;5054845;28;20225;-74
2022/05/03 08:52:08;;;;;;;5.25;2.25;;;;;;;11.51;nan;94953.97;5054122;28;20225;-75
2022/05/03 08:54:36;;;;;;;2.20;2.10;;;;;;;11.46;nan;94950.75;5053959;28;20212;-74
2022/05/03 08:57:08;;;;;;;2.17;1.98;;;;;;;11.79;nan;94958.00;5054498;28;21640;-74
2022/05/03 08:59:37;;;;;;;2.05;1.95;;;;;;;11.87;nan;94950.91;5053667;28;20202;-73
2022/05/03 09:02:04;;;;;;;4.97;2.50;;;;;;;11.76;nan;94947.91;5055486;28;20206;-75
2022/05/03 09:04:31;;;;;;;5.53;2.13;;;;;;;12.08;nan;94956.81;5054804;28;20808;-75
2022/05/03 09:06:58;;;;;;;1.92;1.83;;;;;;;12.02;nan;94954.53;5053344;28;20594;-73
2022/05/03 09:09:25;;;;;;;1.83;1.73;;;;;;;12.22;nan;94937.53;5050074;28;20654;-73
2022/05/03 09:11:53;;;;;;;4.57;2.20;;;;;;;12.66;nan;94947.53;5053695;28;20252;-73
2022/05/03 09:17:14;;;;;;;3.40;3.03;;;;;;;12.29;63.14;94953.38;5058244;27;21153;-74
2022/05/03 09:19:41;;;;;;;3.95;2.15;;;;;;;12.63;61.73;94959.59;5058544;28;20206;-73
2022/05/03 09:25:01;;;;;;;2.38;2.17;;;;;;;12.83;61.14;94952.75;4987295;28;20649;-73
2022/05/03 09:27:28;;;;;;;2.13;2.03;;;;;;;12.42;61.80;94951.13;5035588;28;20213;-74
2022/05/03 09:30:06;;;;;;;1.67;1.58;;;;;;;12.37;60.96;94946.25;5028304;28;20725;-73
2022/05/03 09:32:42;;;;;;;2.40;1.65;;;;;;;12.51;62.20;94943.09;5029104;28;20324;-75
2022/05/03 09:35:33;;;;;;;2.15;1.88;;;;;;;12.97;60.84;94946.19;5026777;28;20231;-73
2022/05/03 09:38:03;;;;;;;2.58;2.25;;;;;;;12.93;61.40;94938.66;5027839;28;20210;-73
2022/05/03 09:40:35;;;;;;;1.85;1.75;;;;;;;13.24;60.35;94939.88;5037403;28;20218;-73
2022/05/03 09:43:02;;;;;;;2.80;1.95;;;;;;;13.45;59.68;94932.94;5026777;28;20211;-73
2022/05/03 09:45:29;;;;;;;1.70;1.60;;;;;;;13.33;59.53;94941.19;5035200;28;20678;-74
2022/05/03 09:47:59;;;;;;;2.58;2.38;;;;;;;13.20;59.40;94930.69;5036349;28;20203;-73
2022/05/03 09:50:39;;;;;;;1.90;1.80;;;;;;;12.74;60.70;94937.00;5030584;28;20211;-73
2022/05/03 09:53:11;;;;;;;1.33;1.27;;;;;;;12.59;60.78;94923.22;5029201;28;20764;-76
2022/05/03 09:55:39;;;;;;;2.72;2.08;;;;;;;12.72;61.00;94937.06;5028292;28;20651;-75
2022/05/03 09:58:08;;;;;;;5.15;3.13;;;;;;;12.98;61.23;94937.66;5032529;28;20200;-74
2022/05/03 10:00:36;;;;;;;2.63;1.92;;;;;;;13.18;60.39;94929.94;5042229;28;20195;-74
2022/05/03 10:03:06;;;;;;;2.45;2.10;;;;;;;13.08;60.69;94924.41;5046314;28;20249;-75
2022/05/03 10:05:35;;;;;;;2.35;2.17;;;;;;;13.54;59.30;94933.34;5029481;28;20200;-74
2022/05/03 10:08:03;;;;;;;2.30;2.08;;;;;;;13.74;58.56;94934.97;5025762;28;20257;-75
2022/05/03 10:10:30;;;;;;;1.65;1.55;;;;;;;13.68;56.87;94932.69;5040390;28;20306;-74
2022/05/03 10:12:58;;;;;;;2.30;2.20;;;;;;;13.80;57.55;94926.19;5044374;28;20191;-74
2022/05/03 10:21:03;;;;;;;2.08;1.70;;;;;;;13.66;55.01;94921.72;5041532;28;20677;-74
2022/05/03 10:23:32;;;;;;;2.45;1.77;;;;;;;13.82;55.03;94919.28;5041708;28;20730;-73
2022/05/03 10:26:01;;;;;;;1.98;1.75;;;;;;;13.50;55.92;94915.69;5022488;28;20254;-76
2022/05/03 10:29:05;;;;;;;1.50;1.50;;;;;;;13.22;55.93;94932.28;5009983;28;20200;-76
2022/05/03 10:31:51;;;;;;;1.40;1.30;;;;;;;13.07;56.45;94916.84;5010887;28;20767;-73
2022/05/03 10:34:52;;;;;;;0.93;0.93;;;;;;;12.98;54.94;94927.44;5016521;28;20196;-76
2022/05/03 10:37:21;;;;;;;1.48;1.42;;;;;;;12.91;55.66;94916.69;5031526;28;20241;-76
2022/05/03 10:39:57;;;;;;;1.60;1.50;;;;;;;12.97;56.41;94915.59;5020719;28;20661;-75
2022/05/03 10:42:26;;;;;;;2.42;1.27;;;;;;;13.13;55.42;94929.28;5011527;28;20657;-75
2022/05/03 10:45:06;;;;;;;1.45;1.35;;;;;;;12.94;56.49;94919.09;5022369;28;20678;-74
2022/05/03 10:47:49;;;;;;;1.55;1.45;;;;;;;13.00;57.10;94925.66;5032799;28;20253;-74
2022/05/03 10:50:23;;;;;;;3.75;2.03;;;;;;;12.97;57.47;94911.31;5018479;28;20196;-75
2022/05/03 10:53:19;;;;;;;1.85;1.75;;;;;;;13.32;57.36;94927.59;5012667;28;20275;-74
2022/05/03 10:56:04;;;;;;;1.58;1.48;;;;;;;13.50;56.64;94926.72;5029442;28;20228;-74
2022/05/03 10:58:32;;;;;;;1.58;1.38;;;;;;;13.66;55.76;94923.44;5031354;28;20711;-74
2022/05/03 11:01:07;;;;;;;3.38;1.58;;;;;;;13.56;54.90;94905.19;5012636;28;20200;-74
2022/05/03 11:03:36;;;;;;;11.63;1.92;;;;;;;13.82;54.84;94921.81;5012169;28;20561;-75
2022/05/03 11:06:34;;;;;;;1.90;1.80;;;;;;;13.45;54.32;94912.53;5012217;28;20208;-74
2022/05/03 11:09:11;;;;;;;2.80;1.80;;;;;;;13.79;54.94;94914.31;5015285;28;20197;-75
2022/05/03 11:11:59;;;;;;;1.83;1.73;;;;;;;14.48;54.71;94906.63;5032472;28;20358;-74
2022/05/03 11:14:46;;;;;;;3.47;1.50;;;;;;;14.47;51.93;94913.47;5030606;28;20292;-72
2022/05/03 11:17:13;;;;;;;1.88;1.63;;;;;;;14.11;54.55;94907.59;5032348;28;20263;-74
2022/05/03 11:19:47;;;;;;;2.67;1.90;;;;;;;14.41;53.34;94889.94;5022913;28;20254;-74
2022/05/03 11:22:17;;;;;;;1.88;1.60;;;;;;;14.96;51.56;94901.50;5012181;28;20231;-77
2022/05/03 11:24:46;;;;;;;2.05;1.90;;;;;;;14.62;51.89;94899.06;5011622;28;20797;-74
2022/05/03 11:27:14;;;;;;;1.85;1.80;;;;;;;14.26;52.82;94892.34;5012399;28;20208;-75
2022/05/03 11:29:45;;;;;;;2.22;2.10;;;;;;;13.69;53.73;94901.16;5011852;28;20200;-75
2022/05/03 11:32:12;;;;;;;2.20;2.10;;;;;;;13.82;54.22;94901.41;5011782;28;20609;-74
2022/05/03 11:34:39;;;;;;;4.93;2.08;;;;;;;14.13;53.30;94891.28;5011340;28;20263;-75
2022/05/03 11:37:07;;;;;;;2.95;1.95;;;;;;;14.32;52.85;94896.31;5011849;28;20680;-76
2022/05/03 11:39:37;;;;;;;3.10;1.80;;;;;;;14.21;52.77;94896.84;5010564;28;20579;-77
2022/05/03 11:42:06;;;;;;;1.50;1.40;;;;;;;14.09;52.38;94894.94;5011461;28;20189;-76
2022/05/03 11:44:33;;;;;;;1.60;1.50;;;;;;;14.19;52.98;94893.53;5018057;28;20238;-76
2022/05/03 11:47:04;;;;;;;2.30;2.10;;;;;;;14.20;52.14;94882.44;5031039;28;20191;-74
2022/05/03 11:49:32;;;;;;;1.90;1.80;;;;;;;14.50;52.65;94886.91;5024014;28;20337;-75
2022/05/03 11:57:35;;;;;;;2.75;1.77;;;;;;;14.02;52.14;94893.56;5011333;28;20782;-75
2022/05/03 12:00:05;;;;;;;2.17;1.98;;;;;;;13.72;53.47;94883.13;5011285;28;20676;-73
2022/05/03 12:02:34;;;;;;;1.70;1.60;;;;;;;13.94;53.07;94878.63;5011192;28;20753;-74
2022/05/03 12:05:12;;;;;;;1.75;1.65;;;;;;;13.82;53.46;94894.56;5010895;28;20267;-72
2022/05/03 12:07:42;;;;;;;2.63;1.48;;;;;;;13.86;54.01;94879.88;5011375;28;20268;-75
2022/05/03 12:10:19;;;;;;;2.00;1.90;;;;;;;13.99;53.65;94873.28;5022147;28;20737;-75
2022/05/03 12:12:47;;;;;;;3.80;1.30;;;;;;;13.99;54.68;94883.50;5030718;28;20282;-75
2022/05/03 12:15:25;;;;;;;3.40;2.08;;;;;;;13.90;53.67;94878.84;5017653;28;20703;-74
2022/05/03 12:17:57;;;;;;;1.50;1.40;;;;;;;13.98;52.86;94883.56;5011091;28;20290;-75
2022/05/03 12:20:24;;;;;;;1.35;1.20;;;;;;;13.69;53.17;94885.00;5024323;28;20203;-74
2022/05/03 12:23:12;;;;;;;1.55;1.45;;;;;;;13.70;52.87;94891.75;5030625;28;20211;-74
2022/05/03 12:25:41;;;;;;;2.78;1.50;;;;;;;13.68;52.86;94891.00;5014162;28;20602;-76
2022/05/03 12:28:08;;;;;;;4.38;1.63;;;;;;;13.57;53.72;94882.16;5011343;28;20243;-77
2022/05/03 12:30:36;;;;;;;1.65;1.55;;;;;;;13.25;54.59;94893.88;5010817;28;20201;-75
2022/05/03 12:33:04;;;;;;;1.90;1.80;;;;;;;13.32;54.23;94891.88;5011018;28;20203;-74
2022/05/03 12:35:32;;;;;;;4.50;1.77;;;;;;;13.37;54.05;94891.63;5010635;28;20201;-75